sensor_id;sensor_type;location;lat;lon;timestamp;P1;durP1;ratioP1;P2;durP2;ratioP2
21299;SDS011;10809;49.476;11.016;2022-07-17T00:01:20;2.30;;;2.10;;
21299;SDS011;10809;49.476;11.016;2022-07-17T00:03:51;7.22;;;3.78;;
21299;SDS011;10809;49.476;11.016;2022-07-17T00:06:21;9.27;;;4.15;;
21299;SDS011;10809;49.476;11.016;2022-07-17T00:08:52;4.90;;;3.58;;
21299;SDS011;10809;49.476;11.016;2022-07-17T00:11:22;3.43;;;2.63;;
21299;SDS011;10809;49.476;11.016;2022-07-17T00:13:52;6.28;;;3.25;;
21299;SDS011;10809;49.476;11.016;2022-07-17T00:16:23;3.40;;;1.92;;
21299;SDS011;10809;49.476;11.016;2022-07-17T00:18:54;3.38;;;1.77;;
21299;SDS011;10809;49.476;11.016;2022-07-17T00:21:24;3.60;;;2.17;;
21299;SDS011;10809;49.476;11.016;2022-07-17T00:23:55;2.97;;;1.98;;
21299;SDS011;10809;49.476;11.016;2022-07-17T00:26:25;8.05;;;2.33;;
21299;SDS011;10809;49.476;11.016;2022-07-17T00:28:56;6.75;;;2.90;;
21299;SDS011;10809;49.476;11.016;2022-07-17T00:31:26;2.08;;;1.50;;
21299;SDS011;10809;49.476;11.016;2022-07-17T00:33:56;2.90;;;1.60;;
21299;SDS011;10809;49.476;11.016;2022-07-17T00:36:27;1.87;;;1.57;;
21299;SDS011;10809;49.476;11.016;2022-07-17T00:38:57;4.20;;;1.90;;
21299;SDS011;10809;49.476;11.016;2022-07-17T00:41:27;2.67;;;2.17;;
21299;SDS011;10809;49.476;11.016;2022-07-17T00:44:05;4.90;;;1.60;;
21299;SDS011;10809;49.476;11.016;2022-07-17T00:46:36;4.60;;;1.80;;
21299;SDS011;10809;49.476;11.016;2022-07-17T00:49:07;2.47;;;1.83;;
21299;SDS011;10809;49.476;11.016;2022-07-17T00:51:38;6.90;;;2.03;;
21299;SDS011;10809;49.476;11.016;2022-07-17T00:54:15;3.97;;;1.73;;
21299;SDS011;10809;49.476;11.016;2022-07-17T00:56:47;1.87;;;1.77;;
21299;SDS011;10809;49.476;11.016;2022-07-17T00:59:21;2.50;;;2.00;;
21299;SDS011;10809;49.476;11.016;2022-07-17T01:01:54;4.97;;;1.73;;
21299;SDS011;10809;49.476;11.016;2022-07-17T01:04:25;1.97;;;1.77;;
21299;SDS011;10809;49.476;11.016;2022-07-17T01:06:55;5.20;;;1.80;;
21299;SDS011;10809;49.476;11.016;2022-07-17T01:09:29;9.83;;;2.10;;
21299;SDS011;10809;49.476;11.016;2022-07-17T01:12:00;2.10;;;1.70;;
21299;SDS011;10809;49.476;11.016;2022-07-17T01:14:34;2.20;;;2.00;;
21299;SDS011;10809;49.476;11.016;2022-07-17T01:17:04;6.67;;;2.07;;
21299;SDS011;10809;49.476;11.016;2022-07-17T01:19:35;2.53;;;1.70;;
21299;SDS011;10809;49.476;11.016;2022-07-17T01:22:05;4.57;;;1.70;;
21299;SDS011;10809;49.476;11.016;2022-07-17T01:24:39;5.23;;;2.17;;
21299;SDS011;10809;49.476;11.016;2022-07-17T01:27:10;3.47;;;1.57;;
21299;SDS011;10809;49.476;11.016;2022-07-17T01:29:43;2.40;;;1.27;;
21299;SDS011;10809;49.476;11.016;2022-07-17T01:32:14;2.27;;;1.67;;
21299;SDS011;10809;49.476;11.016;2022-07-17T01:34:44;4.60;;;2.10;;
21299;SDS011;10809;49.476;11.016;2022-07-17T01:37:15;2.40;;;1.83;;
21299;SDS011;10809;49.476;11.016;2022-07-17T01:39:49;3.13;;;1.73;;
21299;SDS011;10809;49.476;11.016;2022-07-17T01:42:26;4.13;;;1.77;;
21299;SDS011;10809;49.476;11.016;2022-07-17T01:45:03;5.47;;;1.83;;
21299;SDS011;10809;49.476;11.016;2022-07-17T01:47:34;8.83;;;2.13;;
21299;SDS011;10809;49.476;11.016;2022-07-17T01:50:05;6.60;;;2.47;;
21299;SDS011;10809;49.476;11.016;2022-07-17T01:52:37;3.90;;;1.93;;
21299;SDS011;10809;49.476;11.016;2022-07-17T01:55:09;5.80;;;1.77;;
21299;SDS011;10809;49.476;11.016;2022-07-17T01:57:42;4.80;;;2.60;;
21299;SDS011;10809;49.476;11.016;2022-07-17T02:00:14;5.03;;;1.80;;
21299;SDS011;10809;49.476;11.016;2022-07-17T02:02:46;2.80;;;1.80;;
21299;SDS011;10809;49.476;11.016;2022-07-17T02:05:17;3.03;;;1.67;;
21299;SDS011;10809;49.476;11.016;2022-07-17T02:07:47;4.30;;;1.90;;
21299;SDS011;10809;49.476;11.016;2022-07-17T02:10:18;5.33;;;2.40;;
21299;SDS011;10809;49.476;11.016;2022-07-17T02:12:50;3.07;;;1.97;;
21299;SDS011;10809;49.476;11.016;2022-07-17T02:15:21;2.17;;;1.83;;
21299;SDS011;10809;49.476;11.016;2022-07-17T02:17:55;9.23;;;1.83;;
21299;SDS011;10809;49.476;11.016;2022-07-17T02:20:25;5.77;;;2.00;;
21299;SDS011;10809;49.476;11.016;2022-07-17T02:22:56;8.53;;;2.27;;
21299;SDS011;10809;49.476;11.016;2022-07-17T02:25:29;7.13;;;2.20;;
21299;SDS011;10809;49.476;11.016;2022-07-17T02:28:00;4.73;;;2.17;;
21299;SDS011;10809;49.476;11.016;2022-07-17T02:30:30;13.87;;;2.57;;
21299;SDS011;10809;49.476;11.016;2022-07-17T02:33:00;9.50;;;2.60;;
21299;SDS011;10809;49.476;11.016;2022-07-17T02:35:34;6.13;;;2.13;;
21299;SDS011;10809;49.476;11.016;2022-07-17T02:38:05;6.37;;;2.50;;
21299;SDS011;10809;49.476;11.016;2022-07-17T02:40:39;4.33;;;2.70;;
21299;SDS011;10809;49.476;11.016;2022-07-17T02:43:11;6.60;;;2.70;;
21299;SDS011;10809;49.476;11.016;2022-07-17T02:45:42;2.87;;;2.30;;
21299;SDS011;10809;49.476;11.016;2022-07-17T02:48:12;3.83;;;2.60;;
21299;SDS011;10809;49.476;11.016;2022-07-17T02:50:43;4.87;;;2.77;;
21299;SDS011;10809;49.476;11.016;2022-07-17T02:53:13;5.77;;;2.50;;
21299;SDS011;10809;49.476;11.016;2022-07-17T02:55:43;4.67;;;2.97;;
21299;SDS011;10809;49.476;11.016;2022-07-17T02:58:14;3.53;;;2.53;;
21299;SDS011;10809;49.476;11.016;2022-07-17T03:00:44;4.37;;;2.47;;
21299;SDS011;10809;49.476;11.016;2022-07-17T03:03:15;6.37;;;2.37;;
21299;SDS011;10809;49.476;11.016;2022-07-17T03:05:46;9.93;;;2.60;;
21299;SDS011;10809;49.476;11.016;2022-07-17T03:08:17;8.03;;;2.83;;
21299;SDS011;10809;49.476;11.016;2022-07-17T03:10:51;5.07;;;1.73;;
21299;SDS011;10809;49.476;11.016;2022-07-17T03:13:21;4.90;;;2.63;;
21299;SDS011;10809;49.476;11.016;2022-07-17T03:15:52;3.90;;;2.40;;
21299;SDS011;10809;49.476;11.016;2022-07-17T03:18:22;3.97;;;2.07;;
21299;SDS011;10809;49.476;11.016;2022-07-17T03:20:52;3.10;;;2.00;;
21299;SDS011;10809;49.476;11.016;2022-07-17T03:23:23;3.33;;;2.10;;
21299;SDS011;10809;49.476;11.016;2022-07-17T03:25:53;3.43;;;1.97;;
21299;SDS011;10809;49.476;11.016;2022-07-17T03:28:24;2.90;;;2.50;;
21299;SDS011;10809;49.476;11.016;2022-07-17T03:30:54;4.53;;;2.40;;
21299;SDS011;10809;49.476;11.016;2022-07-17T03:33:24;8.30;;;2.67;;
21299;SDS011;10809;49.476;11.016;2022-07-17T03:35:55;2.97;;;2.30;;
21299;SDS011;10809;49.476;11.016;2022-07-17T03:38:26;5.07;;;2.20;;
21299;SDS011;10809;49.476;11.016;2022-07-17T03:40:56;4.03;;;2.43;;
21299;SDS011;10809;49.476;11.016;2022-07-17T03:43:26;6.07;;;2.77;;
21299;SDS011;10809;49.476;11.016;2022-07-17T03:45:57;3.20;;;2.43;;
21299;SDS011;10809;49.476;11.016;2022-07-17T03:48:28;4.70;;;2.23;;
21299;SDS011;10809;49.476;11.016;2022-07-17T03:50:59;2.23;;;1.77;;
21299;SDS011;10809;49.476;11.016;2022-07-17T03:53:29;5.20;;;2.60;;
21299;SDS011;10809;49.476;11.016;2022-07-17T03:56:00;6.73;;;2.07;;
21299;SDS011;10809;49.476;11.016;2022-07-17T03:58:30;1.70;;;1.57;;
21299;SDS011;10809;49.476;11.016;2022-07-17T04:01:04;4.30;;;2.00;;
21299;SDS011;10809;49.476;11.016;2022-07-17T04:03:35;5.30;;;1.90;;
21299;SDS011;10809;49.476;11.016;2022-07-17T04:06:08;1.67;;;1.47;;
21299;SDS011;10809;49.476;11.016;2022-07-17T04:08:39;6.90;;;2.03;;
21299;SDS011;10809;49.476;11.016;2022-07-17T04:11:10;1.50;;;1.40;;
21299;SDS011;10809;49.476;11.016;2022-07-17T04:13:40;2.70;;;1.50;;
21299;SDS011;10809;49.476;11.016;2022-07-17T04:16:10;6.47;;;2.00;;
21299;SDS011;10809;49.476;11.016;2022-07-17T04:18:44;1.73;;;1.60;;
21299;SDS011;10809;49.476;11.016;2022-07-17T04:21:15;2.67;;;1.50;;
21299;SDS011;10809;49.476;11.016;2022-07-17T04:23:45;2.83;;;2.30;;
21299;SDS011;10809;49.476;11.016;2022-07-17T04:26:15;5.77;;;2.17;;
21299;SDS011;10809;49.476;11.016;2022-07-17T04:28:46;5.07;;;1.97;;
21299;SDS011;10809;49.476;11.016;2022-07-17T04:31:16;1.80;;;1.67;;
21299;SDS011;10809;49.476;11.016;2022-07-17T04:33:47;2.37;;;2.17;;
21299;SDS011;10809;49.476;11.016;2022-07-17T04:36:17;3.03;;;1.63;;
21299;SDS011;10809;49.476;11.016;2022-07-17T04:38:48;1.60;;;1.50;;
21299;SDS011;10809;49.476;11.016;2022-07-17T04:41:18;4.03;;;1.70;;
21299;SDS011;10809;49.476;11.016;2022-07-17T04:43:48;4.03;;;1.90;;
21299;SDS011;10809;49.476;11.016;2022-07-17T04:46:19;7.40;;;1.90;;
21299;SDS011;10809;49.476;11.016;2022-07-17T04:48:49;2.07;;;1.87;;
21299;SDS011;10809;49.476;11.016;2022-07-17T04:51:20;3.30;;;2.30;;
21299;SDS011;10809;49.476;11.016;2022-07-17T04:53:50;1.67;;;1.43;;
21299;SDS011;10809;49.476;11.016;2022-07-17T04:56:20;2.03;;;1.80;;
21299;SDS011;10809;49.476;11.016;2022-07-17T04:58:51;2.00;;;1.80;;
21299;SDS011;10809;49.476;11.016;2022-07-17T05:01:21;1.90;;;1.80;;
21299;SDS011;10809;49.476;11.016;2022-07-17T05:03:52;3.43;;;1.70;;
21299;SDS011;10809;49.476;11.016;2022-07-17T05:06:22;1.80;;;1.70;;
21299;SDS011;10809;49.476;11.016;2022-07-17T05:08:52;2.90;;;1.87;;
21299;SDS011;10809;49.476;11.016;2022-07-17T05:11:23;3.10;;;1.50;;
21299;SDS011;10809;49.476;11.016;2022-07-17T05:13:53;1.90;;;1.33;;
21299;SDS011;10809;49.476;11.016;2022-07-17T05:16:24;2.87;;;1.40;;
21299;SDS011;10809;49.476;11.016;2022-07-17T05:18:54;1.90;;;1.70;;
21299;SDS011;10809;49.476;11.016;2022-07-17T05:21:25;4.30;;;1.63;;
21299;SDS011;10809;49.476;11.016;2022-07-17T05:23:55;3.73;;;1.37;;
21299;SDS011;10809;49.476;11.016;2022-07-17T05:26:25;2.00;;;1.53;;
21299;SDS011;10809;49.476;11.016;2022-07-17T05:28:59;1.90;;;1.60;;
21299;SDS011;10809;49.476;11.016;2022-07-17T05:31:29;1.20;;;1.20;;
21299;SDS011;10809;49.476;11.016;2022-07-17T05:34:03;2.30;;;1.87;;
21299;SDS011;10809;49.476;11.016;2022-07-17T05:36:33;2.53;;;1.90;;
21299;SDS011;10809;49.476;11.016;2022-07-17T05:39:03;1.53;;;1.30;;
21299;SDS011;10809;49.476;11.016;2022-07-17T05:41:37;1.63;;;1.27;;
21299;SDS011;10809;49.476;11.016;2022-07-17T05:44:08;7.37;;;1.60;;
21299;SDS011;10809;49.476;11.016;2022-07-17T05:46:38;0.90;;;0.90;;
21299;SDS011;10809;49.476;11.016;2022-07-17T05:49:08;1.47;;;1.37;;
21299;SDS011;10809;49.476;11.016;2022-07-17T05:51:39;2.30;;;1.23;;
21299;SDS011;10809;49.476;11.016;2022-07-17T05:54:09;2.43;;;1.00;;
21299;SDS011;10809;49.476;11.016;2022-07-17T05:56:39;2.33;;;1.47;;
21299;SDS011;10809;49.476;11.016;2022-07-17T05:59:10;11.63;;;1.50;;
21299;SDS011;10809;49.476;11.016;2022-07-17T06:01:40;2.57;;;1.47;;
21299;SDS011;10809;49.476;11.016;2022-07-17T06:04:11;2.57;;;1.40;;
21299;SDS011;10809;49.476;11.016;2022-07-17T06:06:42;3.50;;;1.67;;
21299;SDS011;10809;49.476;11.016;2022-07-17T06:09:18;7.90;;;1.90;;
21299;SDS011;10809;49.476;11.016;2022-07-17T06:11:48;1.53;;;1.10;;
21299;SDS011;10809;49.476;11.016;2022-07-17T06:14:22;3.40;;;1.53;;
21299;SDS011;10809;49.476;11.016;2022-07-17T06:16:56;2.17;;;0.90;;
21299;SDS011;10809;49.476;11.016;2022-07-17T06:19:27;2.23;;;0.90;;
21299;SDS011;10809;49.476;11.016;2022-07-17T06:22:00;6.47;;;1.03;;
21299;SDS011;10809;49.476;11.016;2022-07-17T06:24:31;3.27;;;0.80;;
21299;SDS011;10809;49.476;11.016;2022-07-17T06:27:01;5.07;;;1.53;;
21299;SDS011;10809;49.476;11.016;2022-07-17T06:29:31;2.20;;;0.90;;
21299;SDS011;10809;49.476;11.016;2022-07-17T06:32:02;1.70;;;0.77;;
21299;SDS011;10809;49.476;11.016;2022-07-17T06:34:36;1.77;;;0.93;;
21299;SDS011;10809;49.476;11.016;2022-07-17T06:37:06;2.70;;;0.80;;
21299;SDS011;10809;49.476;11.016;2022-07-17T06:39:36;0.70;;;0.70;;
21299;SDS011;10809;49.476;11.016;2022-07-17T06:42:07;2.60;;;0.73;;
21299;SDS011;10809;49.476;11.016;2022-07-17T06:44:37;1.65;;;0.75;;
21299;SDS011;10809;49.476;11.016;2022-07-17T06:47:07;2.40;;;0.70;;
21299;SDS011;10809;49.476;11.016;2022-07-17T06:49:38;1.42;;;0.98;;
21299;SDS011;10809;49.476;11.016;2022-07-17T06:52:08;1.73;;;0.70;;
21299;SDS011;10809;49.476;11.016;2022-07-17T06:54:39;2.38;;;0.60;;
21299;SDS011;10809;49.476;11.016;2022-07-17T06:57:10;0.40;;;0.40;;
21299;SDS011;10809;49.476;11.016;2022-07-17T06:59:40;1.08;;;0.50;;
21299;SDS011;10809;49.476;11.016;2022-07-17T07:02:11;0.65;;;0.50;;
21299;SDS011;10809;49.476;11.016;2022-07-17T07:04:41;1.42;;;0.57;;
21299;SDS011;10809;49.476;11.016;2022-07-17T07:07:13;4.10;;;1.00;;
21299;SDS011;10809;49.476;11.016;2022-07-17T07:09:44;3.33;;;0.88;;
21299;SDS011;10809;49.476;11.016;2022-07-17T07:12:14;1.08;;;0.55;;
21299;SDS011;10809;49.476;11.016;2022-07-17T07:14:45;1.05;;;0.50;;
21299;SDS011;10809;49.476;11.016;2022-07-17T07:17:15;4.68;;;0.80;;
21299;SDS011;10809;49.476;11.016;2022-07-17T07:19:49;3.58;;;0.77;;
21299;SDS011;10809;49.476;11.016;2022-07-17T07:22:22;0.45;;;0.45;;
21299;SDS011;10809;49.476;11.016;2022-07-17T07:24:52;1.30;;;0.73;;
21299;SDS011;10809;49.476;11.016;2022-07-17T07:27:23;5.05;;;1.23;;
21299;SDS011;10809;49.476;11.016;2022-07-17T07:29:53;2.33;;;0.60;;
21299;SDS011;10809;49.476;11.016;2022-07-17T07:32:24;5.88;;;0.70;;
21299;SDS011;10809;49.476;11.016;2022-07-17T07:34:54;2.58;;;0.50;;
21299;SDS011;10809;49.476;11.016;2022-07-17T07:37:24;1.67;;;0.60;;
21299;SDS011;10809;49.476;11.016;2022-07-17T07:39:55;0.73;;;0.30;;
21299;SDS011;10809;49.476;11.016;2022-07-17T07:42:26;1.30;;;0.30;;
21299;SDS011;10809;49.476;11.016;2022-07-17T07:44:56;3.70;;;0.70;;
21299;SDS011;10809;49.476;11.016;2022-07-17T07:47:26;1.60;;;0.60;;
21299;SDS011;10809;49.476;11.016;2022-07-17T07:49:57;0.70;;;0.43;;
21299;SDS011;10809;49.476;11.016;2022-07-17T07:52:27;1.38;;;0.32;;
21299;SDS011;10809;49.476;11.016;2022-07-17T07:54:57;1.50;;;0.40;;
21299;SDS011;10809;49.476;11.016;2022-07-17T07:57:28;1.23;;;0.70;;
21299;SDS011;10809;49.476;11.016;2022-07-17T08:00:01;2.83;;;1.13;;
21299;SDS011;10809;49.476;11.016;2022-07-17T08:02:42;1.10;;;0.60;;
21299;SDS011;10809;49.476;11.016;2022-07-17T08:05:13;2.30;;;0.43;;
21299;SDS011;10809;49.476;11.016;2022-07-17T08:07:43;1.38;;;0.25;;
21299;SDS011;10809;49.476;11.016;2022-07-17T08:10:13;4.05;;;0.45;;
21299;SDS011;10809;49.476;11.016;2022-07-17T08:12:44;0.90;;;0.60;;
21299;SDS011;10809;49.476;11.016;2022-07-17T08:15:15;0.93;;;0.73;;
21299;SDS011;10809;49.476;11.016;2022-07-17T08:17:47;1.45;;;0.55;;
21299;SDS011;10809;49.476;11.016;2022-07-17T08:20:22;0.80;;;0.35;;
21299;SDS011;10809;49.476;11.016;2022-07-17T08:22:53;0.60;;;0.40;;
21299;SDS011;10809;49.476;11.016;2022-07-17T08:25:23;6.70;;;0.50;;
21299;SDS011;10809;49.476;11.016;2022-07-17T08:27:53;3.92;;;0.88;;
21299;SDS011;10809;49.476;11.016;2022-07-17T08:30:24;0.68;;;0.60;;
21299;SDS011;10809;49.476;11.016;2022-07-17T08:32:57;2.80;;;0.98;;
21299;SDS011;10809;49.476;11.016;2022-07-17T08:35:31;0.77;;;0.43;;
21299;SDS011;10809;49.476;11.016;2022-07-17T08:38:02;0.75;;;0.57;;
21299;SDS011;10809;49.476;11.016;2022-07-17T08:40:36;1.58;;;0.65;;
21299;SDS011;10809;49.476;11.016;2022-07-17T08:43:09;0.52;;;0.50;;
21299;SDS011;10809;49.476;11.016;2022-07-17T08:45:42;6.10;;;1.13;;
21299;SDS011;10809;49.476;11.016;2022-07-17T08:48:14;2.17;;;0.50;;
21299;SDS011;10809;49.476;11.016;2022-07-17T08:50:46;1.92;;;0.82;;
21299;SDS011;10809;49.476;11.016;2022-07-17T08:53:20;0.88;;;0.57;;
21299;SDS011;10809;49.476;11.016;2022-07-17T08:55:50;0.38;;;0.30;;
21299;SDS011;10809;49.476;11.016;2022-07-17T08:58:21;2.55;;;0.95;;
21299;SDS011;10809;49.476;11.016;2022-07-17T09:00:55;1.00;;;0.38;;
21299;SDS011;10809;49.476;11.016;2022-07-17T09:03:25;2.25;;;0.88;;
21299;SDS011;10809;49.476;11.016;2022-07-17T09:05:55;4.38;;;1.75;;
21299;SDS011;10809;49.476;11.016;2022-07-17T09:08:26;1.90;;;0.70;;
21299;SDS011;10809;49.476;11.016;2022-07-17T09:10:59;4.47;;;1.85;;
21299;SDS011;10809;49.476;11.016;2022-07-17T09:13:32;15.25;;;12.75;;
21299;SDS011;10809;49.476;11.016;2022-07-17T09:16:07;5.32;;;3.33;;
21299;SDS011;10809;49.476;11.016;2022-07-17T09:18:44;3.28;;;2.85;;
21299;SDS011;10809;49.476;11.016;2022-07-17T09:21:23;0.73;;;0.60;;
21299;SDS011;10809;49.476;11.016;2022-07-17T09:23:58;1.88;;;1.38;;
21299;SDS011;10809;49.476;11.016;2022-07-17T09:26:32;1.45;;;0.90;;
21299;SDS011;10809;49.476;11.016;2022-07-17T09:29:03;1.02;;;0.90;;
21299;SDS011;10809;49.476;11.016;2022-07-17T09:31:40;4.55;;;0.80;;
21299;SDS011;10809;49.476;11.016;2022-07-17T09:34:17;1.33;;;0.57;;
21299;SDS011;10809;49.476;11.016;2022-07-17T09:37:01;5.88;;;0.50;;
21299;SDS011;10809;49.476;11.016;2022-07-17T09:39:36;0.98;;;0.32;;
21299;SDS011;10809;49.476;11.016;2022-07-17T09:42:07;0.47;;;0.40;;
21299;SDS011;10809;49.476;11.016;2022-07-17T09:44:41;3.80;;;0.40;;
21299;SDS011;10809;49.476;11.016;2022-07-17T09:47:11;0.65;;;0.40;;
21299;SDS011;10809;49.476;11.016;2022-07-17T09:49:41;2.10;;;0.50;;
21299;SDS011;10809;49.476;11.016;2022-07-17T09:52:18;1.23;;;0.43;;
21299;SDS011;10809;49.476;11.016;2022-07-17T09:54:51;0.68;;;0.35;;
21299;SDS011;10809;49.476;11.016;2022-07-17T09:57:25;1.75;;;0.40;;
21299;SDS011;10809;49.476;11.016;2022-07-17T10:00:02;1.08;;;0.40;;
21299;SDS011;10809;49.476;11.016;2022-07-17T10:02:45;1.08;;;0.30;;
21299;SDS011;10809;49.476;11.016;2022-07-17T10:05:18;0.43;;;0.38;;
21299;SDS011;10809;49.476;11.016;2022-07-17T10:07:48;0.77;;;0.40;;
21299;SDS011;10809;49.476;11.016;2022-07-17T10:10:19;0.60;;;0.60;;
21299;SDS011;10809;49.476;11.016;2022-07-17T10:12:49;1.60;;;0.50;;
21299;SDS011;10809;49.476;11.016;2022-07-17T10:15:23;1.50;;;0.40;;
21299;SDS011;10809;49.476;11.016;2022-07-17T10:18:05;0.63;;;0.50;;
21299;SDS011;10809;49.476;11.016;2022-07-17T10:20:36;0.82;;;0.50;;
21299;SDS011;10809;49.476;11.016;2022-07-17T10:23:13;0.55;;;0.30;;
21299;SDS011;10809;49.476;11.016;2022-07-17T10:25:44;0.45;;;0.40;;
21299;SDS011;10809;49.476;11.016;2022-07-17T10:28:15;1.05;;;0.40;;
21299;SDS011;10809;49.476;11.016;2022-07-17T10:30:46;0.60;;;0.50;;
21299;SDS011;10809;49.476;11.016;2022-07-17T10:33:16;0.93;;;0.40;;
21299;SDS011;10809;49.476;11.016;2022-07-17T10:35:48;0.55;;;0.45;;
21299;SDS011;10809;49.476;11.016;2022-07-17T10:38:18;0.30;;;0.30;;
21299;SDS011;10809;49.476;11.016;2022-07-17T10:40:58;1.50;;;0.38;;
21299;SDS011;10809;49.476;11.016;2022-07-17T10:43:41;3.33;;;1.08;;
21299;SDS011;10809;49.476;11.016;2022-07-17T10:46:14;0.90;;;0.35;;
21299;SDS011;10809;49.476;11.016;2022-07-17T10:48:47;0.88;;;0.60;;
21299;SDS011;10809;49.476;11.016;2022-07-17T10:51:18;0.50;;;0.50;;
21299;SDS011;10809;49.476;11.016;2022-07-17T10:53:57;3.60;;;0.50;;
21299;SDS011;10809;49.476;11.016;2022-07-17T10:56:31;0.73;;;0.45;;
21299;SDS011;10809;49.476;11.016;2022-07-17T10:59:08;0.35;;;0.30;;
21299;SDS011;10809;49.476;11.016;2022-07-17T11:01:39;1.02;;;0.50;;
21299;SDS011;10809;49.476;11.016;2022-07-17T11:04:09;0.57;;;0.30;;
21299;SDS011;10809;49.476;11.016;2022-07-17T11:06:39;2.40;;;0.40;;
21299;SDS011;10809;49.476;11.016;2022-07-17T11:09:13;0.32;;;0.20;;
21299;SDS011;10809;49.476;11.016;2022-07-17T11:11:50;0.52;;;0.30;;
21299;SDS011;10809;49.476;11.016;2022-07-17T11:14:25;0.57;;;0.50;;
21299;SDS011;10809;49.476;11.016;2022-07-17T11:16:57;0.30;;;0.30;;
21299;SDS011;10809;49.476;11.016;2022-07-17T11:19:36;1.05;;;0.40;;
21299;SDS011;10809;49.476;11.016;2022-07-17T11:22:09;2.28;;;1.10;;
21299;SDS011;10809;49.476;11.016;2022-07-17T11:24:42;1.10;;;0.38;;
21299;SDS011;10809;49.476;11.016;2022-07-17T11:27:21;0.25;;;0.20;;
21299;SDS011;10809;49.476;11.016;2022-07-17T11:29:54;0.52;;;0.40;;
21299;SDS011;10809;49.476;11.016;2022-07-17T11:32:36;1.10;;;0.30;;
21299;SDS011;10809;49.476;11.016;2022-07-17T11:35:15;2.15;;;0.50;;
21299;SDS011;10809;49.476;11.016;2022-07-17T11:37:50;0.30;;;0.30;;
21299;SDS011;10809;49.476;11.016;2022-07-17T11:40:20;0.93;;;0.32;;
21299;SDS011;10809;49.476;11.016;2022-07-17T11:42:58;0.45;;;0.30;;
21299;SDS011;10809;49.476;11.016;2022-07-17T11:45:37;0.32;;;0.32;;
21299;SDS011;10809;49.476;11.016;2022-07-17T11:48:09;1.38;;;0.40;;
21299;SDS011;10809;49.476;11.016;2022-07-17T11:50:40;1.10;;;0.45;;
21299;SDS011;10809;49.476;11.016;2022-07-17T11:53:10;4.38;;;0.30;;
21299;SDS011;10809;49.476;11.016;2022-07-17T11:55:41;0.30;;;0.30;;
21299;SDS011;10809;49.476;11.016;2022-07-17T11:58:11;0.43;;;0.32;;
21299;SDS011;10809;49.476;11.016;2022-07-17T12:00:42;0.50;;;0.22;;
21299;SDS011;10809;49.476;11.016;2022-07-17T12:03:13;0.28;;;0.28;;
21299;SDS011;10809;49.476;11.016;2022-07-17T12:05:43;2.17;;;0.45;;
21299;SDS011;10809;49.476;11.016;2022-07-17T12:08:18;0.50;;;0.25;;
21299;SDS011;10809;49.476;11.016;2022-07-17T12:11:05;2.67;;;1.23;;
21299;SDS011;10809;49.476;11.016;2022-07-17T12:13:45;0.75;;;0.40;;
21299;SDS011;10809;49.476;11.016;2022-07-17T12:19:05;2.80;;;0.63;;
21299;SDS011;10809;49.476;11.016;2022-07-17T12:22:00;0.50;;;0.32;;
21299;SDS011;10809;49.476;11.016;2022-07-17T12:24:33;4.63;;;0.60;;
21299;SDS011;10809;49.476;11.016;2022-07-17T12:27:08;0.47;;;0.45;;
21299;SDS011;10809;49.476;11.016;2022-07-17T12:29:40;0.40;;;0.28;;
21299;SDS011;10809;49.476;11.016;2022-07-17T12:32:16;0.75;;;0.38;;
21299;SDS011;10809;49.476;11.016;2022-07-17T12:34:48;0.73;;;0.50;;
21299;SDS011;10809;49.476;11.016;2022-07-17T12:37:20;1.05;;;0.57;;
21299;SDS011;10809;49.476;11.016;2022-07-17T12:39:51;2.20;;;0.40;;
21299;SDS011;10809;49.476;11.016;2022-07-17T12:42:22;3.22;;;0.60;;
21299;SDS011;10809;49.476;11.016;2022-07-17T12:44:52;0.82;;;0.60;;
21299;SDS011;10809;49.476;11.016;2022-07-17T12:47:22;0.40;;;0.40;;
21299;SDS011;10809;49.476;11.016;2022-07-17T12:49:53;0.63;;;0.50;;
21299;SDS011;10809;49.476;11.016;2022-07-17T12:52:23;3.47;;;0.70;;
21299;SDS011;10809;49.476;11.016;2022-07-17T12:54:54;0.95;;;0.30;;
21299;SDS011;10809;49.476;11.016;2022-07-17T12:57:24;1.10;;;0.40;;
21299;SDS011;10809;49.476;11.016;2022-07-17T12:59:54;0.60;;;0.60;;
21299;SDS011;10809;49.476;11.016;2022-07-17T13:02:25;0.30;;;0.30;;
21299;SDS011;10809;49.476;11.016;2022-07-17T13:04:55;0.82;;;0.30;;
21299;SDS011;10809;49.476;11.016;2022-07-17T13:07:26;2.28;;;0.80;;
21299;SDS011;10809;49.476;11.016;2022-07-17T13:09:56;1.80;;;0.50;;
21299;SDS011;10809;49.476;11.016;2022-07-17T13:12:30;1.65;;;0.40;;
21299;SDS011;10809;49.476;11.016;2022-07-17T13:15:00;6.45;;;2.67;;
21299;SDS011;10809;49.476;11.016;2022-07-17T13:17:32;1.30;;;0.40;;
21299;SDS011;10809;49.476;11.016;2022-07-17T13:20:03;0.30;;;0.20;;
21299;SDS011;10809;49.476;11.016;2022-07-17T13:22:38;1.25;;;0.25;;
21299;SDS011;10809;49.476;11.016;2022-07-17T13:25:09;0.82;;;0.30;;
21299;SDS011;10809;49.476;11.016;2022-07-17T13:27:39;0.30;;;0.30;;
21299;SDS011;10809;49.476;11.016;2022-07-17T13:30:10;1.42;;;0.90;;
21299;SDS011;10809;49.476;11.016;2022-07-17T13:32:41;1.05;;;0.50;;
21299;SDS011;10809;49.476;11.016;2022-07-17T13:35:11;0.32;;;0.25;;
21299;SDS011;10809;49.476;11.016;2022-07-17T13:37:45;0.93;;;0.40;;
21299;SDS011;10809;49.476;11.016;2022-07-17T13:40:15;3.28;;;0.43;;
21299;SDS011;10809;49.476;11.016;2022-07-17T13:42:46;0.75;;;0.20;;
21299;SDS011;10809;49.476;11.016;2022-07-17T13:45:19;1.45;;;0.80;;
21299;SDS011;10809;49.476;11.016;2022-07-17T13:47:53;0.77;;;0.60;;
21299;SDS011;10809;49.476;11.016;2022-07-17T13:50:24;1.00;;;0.30;;
21299;SDS011;10809;49.476;11.016;2022-07-17T13:52:55;1.02;;;0.45;;
21299;SDS011;10809;49.476;11.016;2022-07-17T13:55:26;0.28;;;0.25;;
21299;SDS011;10809;49.476;11.016;2022-07-17T13:57:59;0.80;;;0.30;;
21299;SDS011;10809;49.476;11.016;2022-07-17T14:00:29;0.60;;;0.32;;
21299;SDS011;10809;49.476;11.016;2022-07-17T14:03:00;1.30;;;0.28;;
21299;SDS011;10809;49.476;11.016;2022-07-17T14:05:30;1.05;;;0.20;;
21299;SDS011;10809;49.476;11.016;2022-07-17T14:08:01;0.47;;;0.25;;
21299;SDS011;10809;49.476;11.016;2022-07-17T14:10:31;0.30;;;0.30;;
21299;SDS011;10809;49.476;11.016;2022-07-17T14:13:02;0.90;;;0.30;;
21299;SDS011;10809;49.476;11.016;2022-07-17T14:15:32;0.15;;;0.15;;
21299;SDS011;10809;49.476;11.016;2022-07-17T14:18:03;2.38;;;0.38;;
21299;SDS011;10809;49.476;11.016;2022-07-17T14:20:33;1.40;;;0.43;;
21299;SDS011;10809;49.476;11.016;2022-07-17T14:23:03;0.20;;;0.20;;
21299;SDS011;10809;49.476;11.016;2022-07-17T14:25:40;0.25;;;0.22;;
21299;SDS011;10809;49.476;11.016;2022-07-17T14:28:10;0.47;;;0.20;;
21299;SDS011;10809;49.476;11.016;2022-07-17T14:30:41;1.95;;;0.40;;
21299;SDS011;10809;49.476;11.016;2022-07-17T14:33:15;1.00;;;0.38;;
21299;SDS011;10809;49.476;11.016;2022-07-17T14:35:45;0.68;;;0.20;;
21299;SDS011;10809;49.476;11.016;2022-07-17T14:38:18;0.77;;;0.40;;
21299;SDS011;10809;49.476;11.016;2022-07-17T14:40:49;0.15;;;0.13;;
21299;SDS011;10809;49.476;11.016;2022-07-17T14:43:22;0.30;;;0.30;;
21299;SDS011;10809;49.476;11.016;2022-07-17T14:45:56;0.90;;;0.28;;
21299;SDS011;10809;49.476;11.016;2022-07-17T14:48:29;0.40;;;0.40;;
21299;SDS011;10809;49.476;11.016;2022-07-17T14:51:00;0.75;;;0.47;;
21299;SDS011;10809;49.476;11.016;2022-07-17T14:53:30;2.05;;;0.30;;
21299;SDS011;10809;49.476;11.016;2022-07-17T14:56:00;0.63;;;0.25;;
21299;SDS011;10809;49.476;11.016;2022-07-17T14:58:31;0.52;;;0.28;;
21299;SDS011;10809;49.476;11.016;2022-07-17T15:01:01;0.40;;;0.10;;
21299;SDS011;10809;49.476;11.016;2022-07-17T15:03:32;1.30;;;0.32;;